Time;durP1;ratioP1;P1;durP2;ratioP2;P2;SDS_P1;SDS_P2;PMS_P1;PMS_P2;Temp;Humidity;BMP_temperature;BMP_pressure;BME280_temperature;BME280_humidity;BME280_pressure;Samples;Min_cycle;Max_cycle;Signal;HPM_P1;HPM_P2
2022/04/11 00:03:01;;;;;;;0.60;0.40;;;;;;;;;;20285200;29;20052;-81
2022/04/11 00:13:04;;;;;;;0.32;0.32;;;;;;;;;;20278097;29;20044;-81
2022/04/11 00:23:09;;;;;;;0.32;0.20;;;;;;;;;;20295755;29;20217;-81
2022/04/11 00:33:11;;;;;;;0.90;0.45;;;;;;;;;;20283692;29;20131;-81
2022/04/11 00:43:31;;;;;;;0.95;0.38;;;;;;;;;;20297613;29;20048;-81
2022/04/11 00:53:34;;;;;;;0.35;0.30;;;;;;;;;;20334600;29;20384;-81
2022/04/11 01:03:36;;;;;;;0.52;0.35;;;;;;;;;;20301862;29;20108;-80
2022/04/11 01:13:40;;;;;;;0.43;0.30;;;;;;;;;;20278342;29;20060;-80
2022/04/11 01:23:41;;;;;;;0.30;0.30;;;;;;;;;;20291941;29;20135;-81
2022/04/11 01:33:43;;;;;;;0.52;0.35;;;;;;;;;;20320180;29;20111;-82
2022/04/11 01:43:45;;;;;;;0.50;0.32;;;;;;;;;;20265734;29;20598;-82
2022/04/11 01:53:47;;;;;;;0.65;0.60;;;;;;;;;;20298201;29;20056;-81
2022/04/11 02:03:49;;;;;;;0.88;0.50;;;;;;;;;;20275391;29;20131;-81
2022/04/11 02:13:51;;;;;;;0.52;0.52;;;;;;;;;;20280878;29;20056;-81
2022/04/11 02:23:53;;;;;;;1.30;0.70;;;;;;;;;;20293665;29;20090;-81
2022/04/11 02:33:54;;;;;;;0.73;0.70;;;;;;;;;;20275836;29;20051;-81
2022/04/11 02:43:56;;;;;;;0.90;0.55;;;;;;;;;;20272944;29;20049;-82
2022/04/11 02:54:02;;;;;;;1.38;0.75;;;;;;;;;;20270909;29;20049;-82
2022/04/11 03:04:04;;;;;;;1.25;0.80;;;;;;;;;;20260847;29;20433;-82
2022/04/11 03:14:32;;;;;;;0.93;0.70;;;;;;;;;;20274172;29;20100;-82
2022/04/11 03:24:36;;;;;;;1.10;0.80;;;;;;;;;;20260767;29;20423;-81
2022/04/11 03:34:38;;;;;;;1.40;0.70;;;;;;;;;;20291905;29;20055;-81
2022/04/11 03:44:42;;;;;;;1.30;0.70;;;;;;;;;;20260066;29;20048;-81
2022/04/11 03:54:49;;;;;;;1.35;0.75;;;;;;;;;;20307164;29;20044;-82
2022/04/11 04:04:52;;;;;;;0.63;0.50;;;;;;;;;;20274553;29;20064;-82
2022/04/11 04:14:58;;;;;;;1.00;0.63;;;;;;;;;;20266698;29;20056;-83
2022/04/11 04:25:01;;;;;;;2.03;1.55;;;;;;;;;;20301618;29;20056;-83
2022/04/11 04:35:05;;;;;;;1.17;0.70;;;;;;;;;;20284090;29;20080;-82
2022/04/11 04:45:07;;;;;;;0.60;0.60;;;;;;;;;;20290826;29;20052;-81
2022/04/11 04:55:27;;;;;;;1.35;0.77;;;;;;;;;;20298593;29;20048;-80
2022/04/11 05:05:30;;;;;;;0.90;0.65;;;;;;;;;;20315961;29;20067;-81
2022/04/11 05:15:34;;;;;;;1.15;0.70;;;;;;;;;;20331347;29;20051;-81
2022/04/11 05:25:45;;;;;;;0.50;0.50;;;;;;;;;;20330460;29;20084;-80
2022/04/11 05:35:47;;;;;;;0.70;0.70;;;;;;;;;;20329645;29;20037;-81
2022/04/11 05:45:49;;;;;;;1.15;0.70;;;;;;;;;;20328991;29;20056;-80
2022/04/11 05:55:51;;;;;;;0.52;0.50;;;;;;;;;;20297514;29;20044;-81
2022/04/11 06:05:53;;;;;;;2.88;0.70;;;;;;;;;;20344405;29;20384;-82
2022/04/11 06:15:58;;;;;;;1.55;0.50;;;;;;;;;;20326369;29;20063;-82
2022/04/11 06:26:01;;;;;;;0.50;0.43;;;;;;;;;;20326651;29;20060;-82
2022/04/11 06:36:08;;;;;;;0.50;0.50;;;;;;;;;;20326224;29;20538;-82
2022/04/11 06:46:10;;;;;;;0.63;0.50;;;;;;;;;;20325529;29;20052;-82
2022/04/11 06:56:13;;;;;;;0.50;0.50;;;;;;;;;;20325127;29;20123;-82
2022/04/11 07:06:15;;;;;;;0.63;0.50;;;;;;;;;;20324693;29;20084;-82
2022/04/11 07:16:16;;;;;;;1.08;0.50;;;;;;;;;;20324884;29;20487;-82
2022/04/11 07:26:18;;;;;;;1.77;0.68;;;;;;;;;;20325957;29;20052;-81
2022/04/11 07:36:20;;;;;;;0.88;0.50;;;;;;;;;;20338907;29;20084;-82
2022/04/11 07:46:22;;;;;;;0.73;0.60;;;;;;;;;;20339312;29;20060;-82
2022/04/11 07:56:23;;;;;;;0.70;0.43;;;;;;;;;;20337395;29;20111;-82
2022/04/11 08:06:25;;;;;;;0.60;0.60;;;;;;;;;;20353512;29;20143;-82
2022/04/11 08:16:27;;;;;;;0.70;0.60;;;;;;;;;;20320563;29;20051;-82
2022/04/11 08:26:29;;;;;;;1.25;0.68;;;;;;;;;;20352263;29;20056;-82
2022/04/11 08:36:31;;;;;;;1.30;0.50;;;;;;;;;;20318518;29;20056;-82
2022/04/11 08:46:34;;;;;;;0.50;0.50;;;;;;;;;;20350688;29;20487;-82
2022/04/11 08:56:36;;;;;;;0.85;0.65;;;;;;;;;;20349866;29;20072;-82
2022/04/11 09:06:38;;;;;;;0.40;0.38;;;;;;;;;;20332222;29;20510;-82
2022/04/11 09:16:49;;;;;;;0.88;0.60;;;;;;;;;;20331685;29;20046;-84
2022/04/11 09:26:57;;;;;;;0.73;0.60;;;;;;;;;;20331017;29;20083;-81
2022/04/11 09:37:00;;;;;;;1.08;0.50;;;;;;;;;;20329964;29;20059;-81
2022/04/11 09:47:04;;;;;;;0.60;0.57;;;;;;;;;;20345870;29;20087;-81
2022/04/11 09:57:06;;;;;;;1.02;0.50;;;;;;;;;;20344536;29;20475;-81
2022/04/11 10:07:10;;;;;;;0.63;0.43;;;;;;;;;;20312028;29;20066;-81
2022/04/11 10:17:16;;;;;;;0.43;0.43;;;;;;;;;;20327069;29;20048;-83
2022/04/11 10:27:19;;;;;;;0.63;0.45;;;;;;;;;;20312814;29;20056;-80
2022/04/11 10:37:25;;;;;;;1.38;0.60;;;;;;;;;;20326164;29;20048;-80
2022/04/11 10:47:29;;;;;;;0.65;0.60;;;;;;;;;;20326074;29;20559;-82
2022/04/11 10:57:33;;;;;;;1.02;0.57;;;;;;;;;;20307625;29;20071;-82
2022/04/11 11:07:34;;;;;;;0.77;0.60;;;;;;;;;;20277295;29;20139;-82
2022/04/11 11:17:55;;;;;;;1.05;0.47;;;;;;;;;;20279231;29;20085;-82
2022/04/11 11:27:57;;;;;;;1.08;0.50;;;;;;;;;;20278420;29;20072;-82
2022/04/11 11:38:02;;;;;;;1.08;0.70;;;;;;;;;;20277431;29;20060;-82
2022/04/11 11:48:22;;;;;;;0.90;0.50;;;;;;;;;;20260583;29;20056;-82
2022/04/11 11:58:34;;;;;;;0.70;0.60;;;;;;;;;;21236777;23;20118;-81
2022/04/11 12:08:36;;;;;;;0.60;0.60;;;;;;;;;;20353756;29;20051;-82
2022/04/11 12:18:51;;;;;;;0.82;0.77;;;;;;;;;;20335252;29;20135;-84
2022/04/11 12:28:53;;;;;;;0.97;0.70;;;;;;;;;;20335204;29;20060;-84
2022/04/11 12:39:10;;;;;;;0.88;0.60;;;;;;;;;;20334857;29;20162;-84
2022/04/11 12:49:18;;;;;;;0.63;0.60;;;;;;;;;;20318136;29;20545;-84
2022/04/11 12:59:30;;;;;;;0.50;0.50;;;;;;;;;;20350141;29;20055;-81
2022/04/11 13:09:32;;;;;;;0.90;0.65;;;;;;;;;;20332402;29;20058;-82
2022/04/11 13:19:34;;;;;;;1.98;0.90;;;;;;;;;;20332752;29;20496;-81
2022/04/11 13:29:36;;;;;;;1.17;0.77;;;;;;;;;;20347404;29;20132;-81
2022/04/11 13:39:41;;;;;;;1.13;0.60;;;;;;;;;;20347080;29;20505;-81
2022/04/11 13:49:43;;;;;;;0.70;0.70;;;;;;;;;;20329154;29;20067;-82
2022/04/11 13:59:47;;;;;;;1.05;0.80;;;;;;;;;;20328805;29;20062;-82
2022/04/11 14:09:49;;;;;;;1.67;0.98;;;;;;;;;;20344540;29;20060;-81
2022/04/11 14:19:50;;;;;;;0.85;0.80;;;;;;;;;;20327928;29;20475;-82
2022/04/11 14:29:52;;;;;;;1.20;0.93;;;;;;;;;;20311198;29;20054;-81
2022/04/11 14:39:54;;;;;;;0.85;0.77;;;;;;;;;;20312347;29;20075;-82
2022/04/11 14:49:56;;;;;;;1.00;0.80;;;;;;;;;;20342852;29;20048;-82
2022/04/11 14:59:58;;;;;;;1.00;0.80;;;;;;;;;;20342186;29;20140;-82
2022/04/11 15:10:01;;;;;;;1.95;0.88;;;;;;;;;;20342004;29;20086;-81
2022/04/11 15:20:03;;;;;;;1.23;0.88;;;;;;;;;;20341299;29;20060;-82
2022/04/11 15:30:06;;;;;;;1.40;0.80;;;;;;;;;;20282086;29;20049;-81
2022/04/11 15:40:08;;;;;;;1.08;0.98;;;;;;;;;;20292384;29;20079;-81
2022/04/11 15:50:10;;;;;;;1.08;0.80;;;;;;;;;;20257728;29;20040;-82
2022/04/11 16:00:17;;;;;;;1.83;1.05;;;;;;;;;;20276089;29;20447;-81
2022/04/11 16:10:19;;;;;;;0.70;0.60;;;;;;;;;;20325519;29;20055;-82
2022/04/11 16:20:22;;;;;;;1.45;0.80;;;;;;;;;;20352880;29;20052;-82
2022/04/11 16:30:24;;;;;;;0.90;0.80;;;;;;;;;;20352094;29;20277;-82
2022/04/11 16:40:32;;;;;;;1.52;1.00;;;;;;;;;;20335778;29;20459;-83
2022/04/11 16:50:34;;;;;;;1.17;0.90;;;;;;;;;;20350800;29;20062;-83
2022/04/11 17:00:35;;;;;;;1.20;0.93;;;;;;;;;;20349250;29;20491;-83
2022/04/11 17:10:37;;;;;;;1.13;1.05;;;;;;;;;;20319963;29;20507;-81
2022/04/11 17:20:39;;;;;;;0.77;0.60;;;;;;;;;;20253336;29;20145;-80
2022/04/11 17:30:41;;;;;;;1.05;0.95;;;;;;;;;;20269106;29;20521;-81
2022/04/11 17:40:44;;;;;;;1.92;1.10;;;;;;;;;;20269186;29;20563;-81
2022/04/11 17:50:50;;;;;;;1.02;0.80;;;;;;;;;;20252687;29;20044;-82
2022/04/11 18:00:52;;;;;;;;;;;;;;;;;;20267707;29;20065;-83
2022/04/11 18:10:54;;;;;;;1.13;0.70;;;;;;;;;;20266198;29;19995;-83
2022/04/11 18:20:56;;;;;;;0.80;0.70;;;;;;;;;;20265825;29;20049;-81
2022/04/11 18:41:18;;;;;;;1.48;1.00;;;;;;;;;;20254061;29;20476;-81
2022/04/11 18:51:20;;;;;;;1.65;1.10;;;;;;;;;;20300917;29;20047;-81
2022/04/11 19:01:21;;;;;;;0.77;0.73;;;;;;;;;;20301148;29;20128;-82
2022/04/11 19:11:23;;;;;;;2.03;1.40;;;;;;;;;;20303755;29;20057;-82
2022/04/11 19:21:25;;;;;;;0.90;0.90;;;;;;;;;;20293772;29;20076;-83
2022/04/11 19:31:29;;;;;;;1.25;1.15;;;;;;;;;;20313849;29;20478;-83
2022/04/11 19:41:30;;;;;;;1.10;1.00;;;;;;;;;;20286790;29;20051;-82
2022/04/11 19:51:32;;;;;;;1.40;1.00;;;;;;;;;;20293136;29;20050;-81
2022/04/11 20:01:34;;;;;;;1.13;0.93;;;;;;;;;;20285421;29;20071;-81
2022/04/11 20:11:36;;;;;;;1.75;1.20;;;;;;;;;;20286665;29;20048;-82
2022/04/11 20:21:38;;;;;;;1.10;1.00;;;;;;;;;;20276097;29;20100;-81
2022/04/11 20:31:40;;;;;;;1.52;1.30;;;;;;;;;;20302047;29;20051;-81
2022/04/11 20:41:42;;;;;;;2.10;1.30;;;;;;;;;;20289000;29;20044;-81
2022/04/11 20:51:43;;;;;;;1.42;1.33;;;;;;;;;;20299273;29;20135;-82
2022/04/11 21:01:45;;;;;;;1.30;1.10;;;;;;;;;;20272445;29;20056;-81
2022/04/11 21:11:47;;;;;;;1.15;1.05;;;;;;;;;;20303127;29;20045;-82
2022/04/11 21:21:49;;;;;;;1.40;1.30;;;;;;;;;;20294844;29;20054;-82
2022/04/11 21:31:51;;;;;;;1.58;1.30;;;;;;;;;;20306790;29;20480;-82
2022/04/11 21:41:56;;;;;;;1.48;1.30;;;;;;;;;;20306449;29;20797;-82
2022/04/11 21:52:03;;;;;;;1.92;1.55;;;;;;;;;;20278223;29;20051;-82
2022/04/11 22:02:05;;;;;;;2.10;1.60;;;;;;;;;;20275161;29;20057;-82
2022/04/11 22:12:07;;;;;;;1.58;1.30;;;;;;;;;;20288350;29;20096;-83
2022/04/11 22:22:09;;;;;;;1.67;1.25;;;;;;;;;;20277561;29;20139;-83
2022/04/11 22:32:11;;;;;;;1.73;1.55;;;;;;;;;;20307650;29;20483;-82
2022/04/11 22:42:13;;;;;;;1.42;1.30;;;;;;;;;;20263378;29;20079;-80
2022/04/11 22:52:14;;;;;;;1.45;1.08;;;;;;;;;;20270552;29;20075;-84
2022/04/11 23:02:16;;;;;;;1.90;1.23;;;;;;;;;;20296731;29;20055;-84
2022/04/11 23:12:18;;;;;;;1.80;1.30;;;;;;;;;;20284014;29;20049;-83
2022/04/11 23:22:20;;;;;;;2.33;1.15;;;;;;;;;;20317738;29;20048;-83
2022/04/11 23:32:21;;;;;;;1.42;1.20;;;;;;;;;;20293711;29;20053;-84
2022/04/11 23:42:24;;;;;;;1.88;1.10;;;;;;;;;;20312109;29;20139;-85
2022/04/11 23:52:28;;;;;;;1.33;0.90;;;;;;;;;;20286303;29;20051;-83
